Time;durP1;ratioP1;P1;durP2;ratioP2;P2;SDS_P1;SDS_P2;PMS_P1;PMS_P2;Temp;Humidity;BMP_temperature;BMP_pressure;BME280_temperature;BME280_humidity;BME280_pressure;Samples;Min_cycle;Max_cycle;Signal;HPM_P1;HPM_P2
2023/06/17 00:02:05;;;;;;;9.57;6.00;;;17.90;99.90;;;;;;5051768;28;20197;-87
2023/06/17 00:04:31;;;;;;;7.65;6.93;;;17.80;99.90;;;;;;5053121;28;20178;-86
2023/06/17 00:06:57;;;;;;;7.97;6.77;;;17.70;99.90;;;;;;5053154;28;20182;-87
2023/06/17 00:09:22;;;;;;;7.45;6.75;;;17.60;99.90;;;;;;5036240;28;20191;-86
2023/06/17 00:11:48;;;;;;;7.97;7.10;;;17.50;99.90;;;;;;5052327;28;20258;-86
2023/06/17 00:14:16;;;;;;;6.80;6.30;;;17.30;99.90;;;;;;5035562;28;20178;-86
2023/06/17 00:16:45;;;;;;;7.10;6.40;;;17.20;99.90;;;;;;5051754;28;20189;-86
2023/06/17 00:19:15;;;;;;;9.87;7.07;;;17.10;99.90;;;;;;5052786;28;20289;-86
2023/06/17 00:21:44;;;;;;;9.35;8.55;;;17.00;99.90;;;;;;5051984;28;20217;-86
2023/06/17 00:24:12;;;;;;;8.98;8.27;;;16.80;99.90;;;;;;5047878;28;20174;-86
2023/06/17 00:26:38;;;;;;;6.93;6.23;;;16.80;99.90;;;;;;5053613;28;20668;-86
2023/06/17 00:29:05;;;;;;;7.13;6.27;;;16.70;99.90;;;;;;5052575;22;20215;-68
2023/06/17 00:31:31;;;;;;;8.43;6.97;;;16.60;99.90;;;;;;5031827;28;20271;-68
2023/06/17 00:33:57;;;;;;;6.60;6.03;;;16.50;99.90;;;;;;5032172;28;20168;-68
2023/06/17 00:36:22;;;;;;;8.97;6.73;;;16.50;99.90;;;;;;5032062;28;20548;-68
2023/06/17 00:38:48;;;;;;;12.70;7.10;;;16.40;99.90;;;;;;5031598;28;20187;-68
2023/06/17 00:41:13;;;;;;;6.83;6.13;;;16.40;99.90;;;;;;5031176;28;20199;-68
2023/06/17 00:43:40;;;;;;;8.00;7.20;;;16.40;99.90;;;;;;5069268;22;20293;-87
2023/06/17 00:46:06;;;;;;;6.73;6.13;;;16.30;99.90;;;;;;5075537;28;20163;-87
2023/06/17 00:48:32;;;;;;;8.10;7.27;;;16.30;99.90;;;;;;5077016;28;20243;-86
2023/06/17 00:51:01;;;;;;;7.60;7.00;;;16.20;99.90;;;;;;5076897;28;20174;-87
2023/06/17 00:53:31;;;;;;;7.13;6.47;;;16.10;99.90;;;;;;5077341;28;20285;-86
2023/06/17 00:55:58;;;;;;;7.97;6.60;;;16.20;99.90;;;;;;5058538;28;20171;-88
2023/06/17 00:58:25;;;;;;;7.07;6.17;;;16.10;99.90;;;;;;5052519;28;20241;-88
2023/06/17 01:00:51;;;;;;;7.00;6.33;;;16.10;99.90;;;;;;5052020;28;20248;-88
2023/06/17 01:03:17;;;;;;;8.73;6.43;;;16.10;99.90;;;;;;5052230;28;20187;-88
2023/06/17 01:05:50;;;;;;;7.67;6.97;;;16.20;99.90;;;;;;5053712;28;20177;-88
2023/06/17 01:08:36;;;;;;;7.37;6.60;;;16.20;99.90;;;;;;5048936;28;20202;-88
2023/06/17 01:11:12;;;;;;;6.97;6.37;;;16.20;99.90;;;;;;5052251;28;20252;-88
2023/06/17 01:13:41;;;;;;;6.53;6.03;;;16.10;99.90;;;;;;5052136;28;20175;-88
2023/06/17 01:16:08;;;;;;;8.73;5.80;;;16.10;99.90;;;;;;5052292;28;20545;-88
2023/06/17 01:18:34;;;;;;;7.10;6.40;;;16.10;99.90;;;;;;5051133;28;20195;-88
2023/06/17 01:21:03;;;;;;;7.57;6.67;;;16.00;99.90;;;;;;5050930;28;20182;-88
2023/06/17 01:23:32;;;;;;;6.73;6.17;;;15.90;99.90;;;;;;5051088;28;20174;-88
2023/06/17 01:25:58;;;;;;;7.40;6.50;;;15.90;99.90;;;;;;5053203;28;20186;-88
2023/06/17 01:28:24;;;;;;;8.30;6.90;;;15.80;99.90;;;;;;5055737;28;20546;-89
2023/06/17 01:30:56;;;;;;;7.10;6.40;;;15.80;99.90;;;;;;5056025;28;20209;-88
2023/06/17 01:33:24;;;;;;;7.07;6.37;;;15.80;99.90;;;;;;5056464;28;20439;-88
2023/06/17 01:35:50;;;;;;;7.30;6.70;;;15.70;99.90;;;;;;5056362;28;20178;-88
2023/06/17 01:38:29;;;;;;;7.93;6.70;;;15.70;99.90;;;;;;5054731;28;20195;-88
2023/06/17 01:41:01;;;;;;;6.87;6.27;;;15.70;99.90;;;;;;5054540;28;20182;-89
2023/06/17 01:43:29;;;;;;;7.23;6.40;;;15.70;99.90;;;;;;5054216;28;20218;-88
2023/06/17 01:45:56;;;;;;;9.47;6.63;;;15.70;99.90;;;;;;5054953;28;20198;-88
2023/06/17 01:48:22;;;;;;;14.97;7.03;;;15.60;99.90;;;;;;5054488;28;20209;-88
2023/06/17 01:50:47;;;;;;;7.73;7.03;;;15.70;99.90;;;;;;5058501;28;20256;-88
2023/06/17 01:53:13;;;;;;;7.07;6.50;;;15.70;99.90;;;;;;5054411;28;20595;-88
2023/06/17 01:55:39;;;;;;;7.70;7.00;;;15.60;99.90;;;;;;5055697;28;20180;-88
2023/06/17 01:58:04;;;;;;;8.30;7.50;;;15.60;99.90;;;;;;5054540;28;20195;-88
2023/06/17 02:00:30;;;;;;;8.50;7.27;;;15.60;99.90;;;;;;5056605;28;20175;-88
2023/06/17 02:02:56;;;;;;;8.13;7.37;;;15.50;99.90;;;;;;5054628;28;20186;-88
2023/06/17 02:05:21;;;;;;;8.30;7.50;;;15.30;99.90;;;;;;5055941;28;20185;-88
2023/06/17 02:07:47;;;;;;;8.23;7.10;;;15.30;99.90;;;;;;5056799;28;20560;-87
2023/06/17 02:10:13;;;;;;;7.80;7.27;;;15.20;99.90;;;;;;5055350;28;20198;-88
2023/06/17 02:12:39;;;;;;;7.60;6.77;;;15.10;99.90;;;;;;5054767;28;20614;-87
2023/06/17 02:15:05;;;;;;;8.33;7.10;;;15.10;99.90;;;;;;5054462;28;20175;-88
2023/06/17 02:17:32;;;;;;;7.13;6.33;;;15.10;99.90;;;;;;5054763;28;20167;-87
2023/06/17 02:19:58;;;;;;;9.03;7.10;;;15.10;99.90;;;;;;5054588;28;20570;-87
2023/06/17 02:22:23;;;;;;;9.33;7.37;;;15.10;99.90;;;;;;5054939;28;20175;-87
2023/06/17 02:24:49;;;;;;;13.00;7.17;;;15.00;99.90;;;;;;5055903;28;20205;-88
2023/06/17 02:27:16;;;;;;;8.43;6.80;;;15.00;99.90;;;;;;5054574;28;20224;-87
2023/06/17 02:29:43;;;;;;;7.63;6.90;;;14.90;99.90;;;;;;5054010;28;20234;-87
2023/06/17 02:32:08;;;;;;;9.00;7.13;;;14.90;99.90;;;;;;5054086;28;20667;-88
2023/06/17 02:34:34;;;;;;;11.43;7.43;;;14.90;99.90;;;;;;5054988;28;20175;-88
2023/06/17 02:37:00;;;;;;;7.57;6.70;;;14.80;99.90;;;;;;5053538;28;20244;-88
2023/06/17 02:39:26;;;;;;;8.27;7.57;;;14.80;99.90;;;;;;5053158;28;20245;-88
2023/06/17 02:41:51;;;;;;;10.20;8.03;;;14.80;99.90;;;;;;5054540;28;20190;-88
2023/06/17 02:44:17;;;;;;;10.97;7.37;;;14.90;99.90;;;;;;5053460;28;20230;-88
2023/06/17 02:46:43;;;;;;;11.13;7.67;;;14.90;99.90;;;;;;5053772;28;20182;-88
2023/06/17 02:49:08;;;;;;;10.17;8.73;;;14.90;99.90;;;;;;5052523;28;20209;-88
2023/06/17 02:51:34;;;;;;;12.07;7.90;;;14.90;99.90;;;;;;5053343;28;20220;-88
2023/06/17 02:54:00;;;;;;;10.37;7.40;;;14.90;99.90;;;;;;5053882;28;20603;-89
2023/06/17 02:56:26;;;;;;;8.80;8.00;;;14.80;99.90;;;;;;5053289;28;20175;-88
2023/06/17 02:58:52;;;;;;;9.50;7.33;;;14.70;99.90;;;;;;5053311;28;20194;-88
2023/06/17 03:01:18;;;;;;;8.27;7.47;;;14.70;99.90;;;;;;5052958;28;20190;-87
2023/06/17 03:03:44;;;;;;;8.00;7.40;;;14.70;99.90;;;;;;5053062;28;20179;-88
2023/06/17 03:06:12;;;;;;;9.17;7.40;;;14.70;99.90;;;;;;5054649;28;20175;-88
2023/06/17 03:08:40;;;;;;;8.00;7.20;;;14.70;99.90;;;;;;5052988;28;20194;-88
2023/06/17 03:11:06;;;;;;;11.03;7.30;;;14.70;99.90;;;;;;5054219;28;20206;-88
2023/06/17 03:13:32;;;;;;;14.20;7.87;;;14.80;99.90;;;;;;5053005;28;20179;-88
2023/06/17 03:15:59;;;;;;;7.93;6.87;;;14.80;99.90;;;;;;5053706;28;20190;-88
2023/06/17 03:18:25;;;;;;;8.53;6.60;;;14.70;99.90;;;;;;5052973;28;20199;-88
2023/06/17 03:20:53;;;;;;;8.00;7.23;;;14.60;99.90;;;;;;5053208;28;20316;-88
2023/06/17 03:23:20;;;;;;;11.97;8.23;;;14.60;99.90;;;;;;5054262;28;20182;-88
2023/06/17 03:25:51;;;;;;;9.40;7.57;;;14.60;99.90;;;;;;5052655;28;20179;-88
2023/06/17 03:28:17;;;;;;;8.40;7.70;;;14.60;99.90;;;;;;5052787;28;20575;-88
2023/06/17 03:30:43;;;;;;;11.60;7.07;;;14.50;99.90;;;;;;5052252;28;20578;-88
2023/06/17 03:33:09;;;;;;;8.50;7.73;;;14.50;99.90;;;;;;5054319;28;20167;-88
2023/06/17 03:35:35;;;;;;;8.97;7.60;;;14.60;99.90;;;;;;5053617;28;20202;-88
2023/06/17 03:38:02;;;;;;;8.50;7.80;;;14.50;99.90;;;;;;5060981;28;20187;-88
2023/06/17 03:40:28;;;;;;;8.40;7.60;;;14.40;99.90;;;;;;5052334;28;20522;-88
2023/06/17 03:42:54;;;;;;;8.17;7.47;;;14.30;99.90;;;;;;5053959;28;20189;-88
2023/06/17 03:45:20;;;;;;;9.50;7.00;;;14.40;99.90;;;;;;5052354;28;20182;-88
2023/06/17 03:47:46;;;;;;;8.23;7.43;;;14.40;99.90;;;;;;5053153;28;20167;-88
2023/06/17 03:50:12;;;;;;;11.30;7.93;;;14.50;99.90;;;;;;5053303;28;20286;-88
2023/06/17 03:52:38;;;;;;;8.60;7.90;;;14.50;99.90;;;;;;5052332;28;20181;-88
2023/06/17 03:55:04;;;;;;;9.67;8.40;;;14.50;99.90;;;;;;5052593;28;20174;-88
2023/06/17 03:57:29;;;;;;;8.70;7.90;;;14.60;99.90;;;;;;5052021;28;20274;-88
2023/06/17 03:59:55;;;;;;;11.47;10.57;;;14.60;99.90;;;;;;5053164;28;20201;-88
2023/06/17 04:02:21;;;;;;;9.60;7.20;;;14.60;99.90;;;;;;5052104;28;20183;-88
2023/06/17 04:04:47;;;;;;;7.87;7.17;;;14.70;99.90;;;;;;5052006;28;20190;-88
2023/06/17 04:07:12;;;;;;;8.43;7.63;;;14.80;99.90;;;;;;5052108;28;20179;-88
2023/06/17 04:09:38;;;;;;;9.50;7.50;;;14.90;99.90;;;;;;5051680;28;20301;-87
2023/06/17 04:12:04;;;;;;;12.00;7.93;;;14.90;99.90;;;;;;5052049;28;20178;-88
2023/06/17 04:14:29;;;;;;;7.30;6.67;;;14.90;99.90;;;;;;5052025;28;20236;-88
2023/06/17 04:16:59;;;;;;;7.30;6.60;;;15.00;99.90;;;;;;5053454;28;20171;-88
2023/06/17 04:19:24;;;;;;;9.90;8.17;;;15.10;99.90;;;;;;5051741;28;20207;-88
2023/06/17 04:21:50;;;;;;;12.77;7.70;;;15.10;99.90;;;;;;5051775;28;20185;-88
2023/06/17 04:24:16;;;;;;;7.77;7.17;;;15.20;99.90;;;;;;5051924;28;20247;-88
2023/06/17 04:26:44;;;;;;;7.70;7.00;;;15.30;99.90;;;;;;5052616;28;20277;-88
2023/06/17 04:29:11;;;;;;;8.37;7.30;;;15.30;99.90;;;;;;5051310;28;20207;-88
2023/06/17 04:31:40;;;;;;;7.97;6.67;;;15.40;99.90;;;;;;5051521;28;20647;-88
2023/06/17 04:34:06;;;;;;;7.93;7.23;;;15.50;99.90;;;;;;5051542;28;20671;-88
2023/06/17 04:36:32;;;;;;;8.50;7.67;;;15.60;99.90;;;;;;5051882;28;20183;-88
2023/06/17 04:38:58;;;;;;;10.57;6.60;;;15.90;99.90;;;;;;5051578;28;20199;-88
2023/06/17 04:41:26;;;;;;;7.47;6.57;;;16.30;99.90;;;;;;5051319;28;20182;-88
2023/06/17 04:43:53;;;;;;;14.37;13.23;;;16.60;99.90;;;;;;5051764;28;20198;-88
2023/06/17 04:46:20;;;;;;;14.57;6.93;;;17.00;99.90;;;;;;5053035;28;20229;-88
2023/06/17 04:48:46;;;;;;;9.53;7.40;;;17.30;99.90;;;;;;5053048;28;20199;-88
2023/06/17 04:51:12;;;;;;;8.57;6.57;;;17.50;99.90;;;;;;5052787;28;20210;-88
2023/06/17 04:53:39;;;;;;;8.25;7.25;;;17.80;99.90;;;;;;5059594;28;20182;-88
2023/06/17 04:56:06;;;;;;;12.95;7.65;;;18.10;99.90;;;;;;5051779;28;20230;-88
2023/06/17 04:58:32;;;;;;;8.70;6.90;;;18.30;99.90;;;;;;5052865;28;20281;-89
2023/06/17 05:00:58;;;;;;;7.80;6.85;;;18.70;99.90;;;;;;5051082;28;20582;-88
2023/06/17 05:03:24;;;;;;;9.80;6.60;;;19.00;99.90;;;;;;5054191;28;20202;-88
2023/06/17 05:05:51;;;;;;;8.00;7.20;;;19.30;99.90;;;;;;5054955;28;20205;-90
2023/06/17 05:08:16;;;;;;;9.07;6.70;;;19.70;99.90;;;;;;5053290;28;20174;-87
2023/06/17 05:10:42;;;;;;;8.80;6.85;;;20.00;99.90;;;;;;5055300;28;20252;-88
2023/06/17 05:13:08;;;;;;;65.57;35.60;;;20.20;99.90;;;;;;5056165;28;20182;-89
2023/06/17 05:15:33;;;;;;;8.15;7.65;;;20.60;99.90;;;;;;5058361;28;20175;-89
2023/06/17 05:17:59;;;;;;;5.53;4.43;;;20.90;99.90;;;;;;5057529;28;20221;-89
2023/06/17 05:20:24;;;;;;;7.75;6.95;;;21.20;99.90;;;;;;5058624;28;20198;-87
2023/06/17 05:22:55;;;;;;;8.00;7.43;;;21.30;99.90;;;;;;5061223;28;20258;-93
2023/06/17 05:25:21;;;;;;;12.60;6.10;;;21.30;99.90;;;;;;5066248;28;20242;-87
2023/06/17 05:27:48;;;;;;;8.95;8.18;;;21.00;99.90;;;;;;5067146;28;20178;-87
2023/06/17 05:30:13;;;;;;;6.28;5.80;;;20.60;99.90;;;;;;5068641;28;20222;-87
2023/06/17 05:32:39;;;;;;;8.13;7.32;;;20.40;99.90;;;;;;5069352;28;20236;-87
2023/06/17 05:35:05;;;;;;;7.60;6.85;;;20.40;99.90;;;;;;5070766;28;20171;-87
2023/06/17 05:37:32;;;;;;;7.40;6.40;;;20.40;99.90;;;;;;5052280;28;20239;-87
2023/06/17 05:39:58;;;;;;;9.35;6.88;;;20.40;99.90;;;;;;5050698;28;20203;-87
2023/06/17 05:42:24;;;;;;;7.78;6.95;;;20.30;99.90;;;;;;5050837;28;20262;-87
2023/06/17 05:44:50;;;;;;;7.32;6.00;;;20.60;99.90;;;;;;5050812;28;20691;-87
2023/06/17 05:47:15;;;;;;;9.82;6.18;;;21.00;99.90;;;;;;5050940;28;20228;-87
2023/06/17 05:49:41;;;;;;;6.75;5.93;;;21.40;99.90;;;;;;5050177;28;20234;-86
2023/06/17 05:52:07;;;;;;;8.18;5.90;;;22.00;99.90;;;;;;5050747;28;20179;-87
2023/06/17 05:54:32;;;;;;;10.25;6.00;;;22.50;99.90;;;;;;5051305;28;20200;-88
2023/06/17 05:56:58;;;;;;;9.18;5.97;;;23.10;99.90;;;;;;5056274;28;20175;-87
2023/06/17 05:59:25;;;;;;;8.57;6.22;;;23.50;99.90;;;;;;5060438;28;20234;-87
2023/06/17 06:01:51;;;;;;;7.32;6.60;;;23.90;99.90;;;;;;5061844;28;20202;-87
2023/06/17 06:04:17;;;;;;;6.95;5.72;;;24.40;99.90;;;;;;5060833;28;20187;-87
2023/06/17 06:06:42;;;;;;;6.60;6.00;;;24.70;99.90;;;;;;5059252;28;20206;-87
2023/06/17 06:09:08;;;;;;;6.10;5.50;;;25.00;99.90;;;;;;5057734;28;20225;-87
2023/06/17 06:11:34;;;;;;;8.52;5.30;;;25.20;99.90;;;;;;5058859;28;20201;-87
2023/06/17 06:14:00;;;;;;;6.68;6.00;;;25.40;99.90;;;;;;5063487;28;20178;-87
2023/06/17 06:16:25;;;;;;;6.82;6.05;;;25.70;99.90;;;;;;5063086;28;20206;-87
2023/06/17 06:18:51;;;;;;;8.27;6.18;;;26.00;99.90;;;;;;5062409;28;20213;-87
2023/06/17 06:21:17;;;;;;;7.95;6.43;;;26.30;99.90;;;;;;5057156;28;20174;-87
2023/06/17 06:23:43;;;;;;;7.80;6.60;;;26.60;99.90;;;;;;5060680;28;20174;-87
2023/06/17 06:26:09;;;;;;;9.85;7.22;;;26.80;99.90;;;;;;5055213;28;20175;-87
2023/06/17 06:31:04;;;;;;;6.78;6.07;;;27.00;99.90;;;;;;5070362;28;20251;-70
2023/06/17 06:33:30;;;;;;;7.07;5.78;;;27.10;99.90;;;;;;5062872;28;20703;-71
2023/06/17 06:35:55;;;;;;;7.30;5.70;;;27.30;99.90;;;;;;5052086;28;20524;-70
2023/06/17 06:38:21;;;;;;;8.07;7.05;;;27.60;99.90;;;;;;5052521;28;20175;-70
2023/06/17 06:40:47;;;;;;;8.13;6.78;;;27.80;99.90;;;;;;5052838;28;20179;-71
2023/06/17 06:43:12;;;;;;;12.02;8.10;;;27.60;99.90;;;;;;5069944;22;20543;-89
2023/06/17 06:45:38;;;;;;;8.98;8.10;;;27.60;99.90;;;;;;5073213;28;20253;-89
2023/06/17 06:48:04;;;;;;;10.80;8.32;;;27.80;99.90;;;;;;5073202;28;20315;-89
2023/06/17 06:50:30;;;;;;;11.02;7.43;;;27.90;99.90;;;;;;5088574;28;20238;-89
2023/06/17 06:52:55;;;;;;;11.63;6.47;;;28.00;99.90;;;;;;5093069;28;20186;-88
2023/06/17 06:55:22;;;;;;;12.55;8.68;;;28.30;99.90;;;;;;5092608;28;20264;-89
2023/06/17 06:57:48;;;;;;;8.13;7.32;;;28.50;99.30;;;;;;5092865;28;20173;-89
2023/06/17 07:00:14;;;;;;;9.18;7.45;;;28.70;99.90;;;;;;5083721;28;20243;-89
2023/06/17 07:02:40;;;;;;;10.75;8.07;;;29.00;99.90;;;;;;5070166;28;20189;-88
2023/06/17 07:05:05;;;;;;;9.02;7.72;;;29.20;97.30;;;;;;5071986;28;20178;-88
2023/06/17 07:07:31;;;;;;;9.25;7.88;;;29.20;97.10;;;;;;5073614;28;20232;-88
2023/06/17 07:09:56;;;;;;;9.75;7.63;;;29.10;96.10;;;;;;5072100;28;20251;-89
2023/06/17 07:12:22;;;;;;;8.77;6.97;;;29.30;96.60;;;;;;5071663;28;20683;-89
2023/06/17 07:14:49;;;;;;;9.85;7.80;;;29.50;97.80;;;;;;5073761;28;20227;-89
2023/06/17 07:17:15;;;;;;;8.43;7.63;;;30.00;97.60;;;;;;5072119;28;20178;-89
2023/06/17 07:19:41;;;;;;;8.10;6.93;;;30.40;94.80;;;;;;5073158;28;20222;-89
2023/06/17 07:22:07;;;;;;;10.55;7.15;;;30.50;93.80;;;;;;5072563;28;20190;-89
2023/06/17 07:24:33;;;;;;;12.18;6.85;;;30.60;93.10;;;;;;5070215;28;20170;-89
2023/06/17 07:26:59;;;;;;;9.52;6.72;;;30.60;92.60;;;;;;5072902;28;20678;-89
2023/06/17 07:29:25;;;;;;;8.52;7.03;;;30.70;93.80;;;;;;5071439;28;20259;-89
2023/06/17 07:31:51;;;;;;;9.30;6.43;;;31.00;92.40;;;;;;5073540;28;20177;-89
2023/06/17 07:34:16;;;;;;;7.38;6.68;;;31.20;91.20;;;;;;5072056;28;20166;-89
2023/06/17 07:36:42;;;;;;;9.02;7.50;;;31.40;86.30;;;;;;5072074;28;20178;-89
2023/06/17 07:39:07;;;;;;;8.75;7.63;;;31.20;89.80;;;;;;5070927;28;20376;-89
2023/06/17 07:41:33;;;;;;;10.95;7.13;;;31.50;89.40;;;;;;5071873;28;20219;-90
2023/06/17 07:43:59;;;;;;;11.68;6.90;;;31.80;90.00;;;;;;5071263;28;20266;-90
2023/06/17 07:46:25;;;;;;;9.82;6.47;;;32.10;83.20;;;;;;5072234;28;20182;-89
2023/06/17 07:48:50;;;;;;;11.25;6.53;;;32.00;85.50;;;;;;5092686;28;20188;-89
2023/06/17 07:51:16;;;;;;;8.60;6.55;;;32.20;83.40;;;;;;5091582;28;20683;-89
2023/06/17 07:53:42;;;;;;;8.38;6.53;;;32.50;86.50;;;;;;5091929;28;20186;-89
2023/06/17 07:56:07;;;;;;;7.93;6.68;;;33.00;84.10;;;;;;5091786;28;20590;-90
2023/06/17 07:58:33;;;;;;;11.40;6.70;;;33.30;75.30;;;;;;5093298;28;20173;-90
2023/06/17 08:00:58;;;;;;;7.22;6.53;;;33.30;73.50;;;;;;5085856;28;20547;-89
2023/06/17 08:03:24;;;;;;;7.70;6.95;;;33.30;79.90;;;;;;5072734;28;20185;-88
2023/06/17 08:05:50;;;;;;;11.13;7.20;;;33.50;77.90;;;;;;5070699;28;20692;-87
2023/06/17 08:08:15;;;;;;;8.80;6.22;;;33.80;77.80;;;;;;5072976;28;20197;-88
2023/06/17 08:10:41;;;;;;;10.30;6.40;;;34.10;77.90;;;;;;5071213;28;20218;-88
2023/06/17 08:13:06;;;;;;;7.38;6.63;;;34.40;77.70;;;;;;5071587;28;20181;-87
2023/06/17 08:15:32;;;;;;;6.53;5.75;;;34.50;69.30;;;;;;5071658;28;20285;-88
2023/06/17 08:17:58;;;;;;;7.57;5.90;;;34.50;66.70;;;;;;5051568;28;20178;-88
2023/06/17 08:20:24;;;;;;;9.50;5.78;;;34.30;71.60;;;;;;5067984;28;20198;-88
2023/06/17 08:22:50;;;;;;;6.10;5.57;;;34.50;71.20;;;;;;5068291;28;20175;-88
2023/06/17 08:25:16;;;;;;;6.35;5.68;;;34.70;69.30;;;;;;5068622;28;20221;-88
2023/06/17 08:27:47;;;;;;;8.15;5.55;;;35.00;63.10;;;;;;5051669;28;20209;-88
2023/06/17 08:30:13;;;;;;;7.32;5.70;;;35.10;67.10;;;;;;5052291;28;20209;-88
2023/06/17 08:32:39;;;;;;;5.60;5.00;;;35.20;67.30;;;;;;5071019;28;20180;-88
2023/06/17 08:35:06;;;;;;;7.78;5.13;;;35.20;63.10;;;;;;5070644;28;20178;-88
2023/06/17 08:37:33;;;;;;;8.07;5.57;;;35.40;69.90;;;;;;5071199;28;20173;-88
2023/06/17 08:39:59;;;;;;;8.48;4.95;;;35.50;61.40;;;;;;5072028;28;20683;-88
2023/06/17 08:42:26;;;;;;;6.85;5.07;;;34.80;62.70;;;;;;5071020;28;20178;-88
2023/06/17 08:44:54;;;;;;;5.53;4.85;;;34.50;63.50;;;;;;5071312;28;20193;-88
2023/06/17 08:47:20;;;;;;;5.82;5.10;;;34.60;63.30;;;;;;5071061;28;20170;-87
2023/06/17 08:49:46;;;;;;;6.20;5.60;;;34.40;58.30;;;;;;5070842;28;20683;-88
2023/06/17 08:52:13;;;;;;;4.70;4.22;;;33.80;57.90;;;;;;5070095;28;20661;-88
2023/06/17 08:54:40;;;;;;;6.57;5.53;;;33.70;63.10;;;;;;5071151;28;20209;-88
2023/06/17 08:57:13;;;;;;;8.60;5.32;;;34.10;59.90;;;;;;5069920;28;20647;-88
2023/06/17 08:59:41;;;;;;;6.78;5.13;;;34.30;61.70;;;;;;5071630;28;20193;-87
2023/06/17 09:02:07;;;;;;;5.75;4.93;;;34.70;58.40;;;;;;5070572;28;20244;-88
2023/06/17 09:04:35;;;;;;;7.03;4.70;;;34.80;62.70;;;;;;5071243;28;20178;-88
2023/06/17 09:07:00;;;;;;;5.13;4.53;;;35.40;58.70;;;;;;5070460;28;20575;-88
2023/06/17 09:09:26;;;;;;;8.38;4.95;;;36.00;59.20;;;;;;5070712;28;20272;-88
2023/06/17 09:11:53;;;;;;;5.53;4.68;;;36.00;55.30;;;;;;5070516;28;20166;-87
2023/06/17 09:14:27;;;;;;;4.63;4.10;;;36.00;57.10;;;;;;5070435;28;20563;-86
2023/06/17 09:16:53;;;;;;;6.65;4.35;;;35.60;52.10;;;;;;5071950;28;20558;-88
2023/06/17 09:19:23;;;;;;;5.20;4.80;;;34.80;54.10;;;;;;5070681;28;20190;-87
2023/06/17 09:21:48;;;;;;;4.57;4.18;;;34.20;50.70;;;;;;5070525;28;20177;-87
2023/06/17 09:24:14;;;;;;;6.35;5.30;;;34.10;55.40;;;;;;5071473;28;20554;-87
2023/06/17 09:26:44;;;;;;;4.60;4.20;;;34.60;51.50;;;;;;5070606;28;20230;-87
2023/06/17 09:29:14;;;;;;;5.35;4.50;;;34.70;54.10;;;;;;5071386;28;20194;-86
2023/06/17 09:31:53;;;;;;;4.22;3.67;;;35.10;51.70;;;;;;5069773;28;20261;-87
2023/06/17 09:34:20;;;;;;;4.70;4.30;;;35.30;55.20;;;;;;5070224;28;20579;-87
2023/06/17 09:36:52;;;;;;;4.90;4.40;;;35.30;49.70;;;;;;5070859;28;20170;-86
2023/06/17 09:39:18;;;;;;;5.80;4.47;;;35.30;50.20;;;;;;5068613;28;20259;-87
2023/06/17 09:41:44;;;;;;;5.25;4.57;;;35.30;51.00;;;;;;5070984;28;20166;-87
2023/06/17 09:44:11;;;;;;;5.18;4.60;;;35.40;49.60;;;;;;5070386;28;20190;-87
2023/06/17 09:46:39;;;;;;;7.78;5.00;;;35.40;47.90;;;;;;5056431;28;20170;-87
2023/06/17 09:49:10;;;;;;;6.25;4.68;;;35.00;47.10;;;;;;5074645;28;20544;-87
2023/06/17 09:51:37;;;;;;;5.60;4.75;;;34.40;47.80;;;;;;5074939;28;20174;-87
2023/06/17 09:54:05;;;;;;;5.35;4.35;;;34.10;50.50;;;;;;5076896;28;20777;-87
2023/06/17 09:56:31;;;;;;;5.22;4.45;;;34.30;49.60;;;;;;5074488;28;20251;-87
2023/06/17 09:58:58;;;;;;;6.25;5.32;;;33.80;46.30;;;;;;5074732;28;20260;-86
2023/06/17 10:01:30;;;;;;;7.85;4.25;;;33.30;48.60;;;;;;5074039;28;20746;-86
2023/06/17 10:04:00;;;;;;;6.43;5.20;;;33.30;50.10;;;;;;5076320;28;20224;-86
2023/06/17 10:06:30;;;;;;;8.02;4.45;;;33.20;47.30;;;;;;5069869;28;20197;-87
2023/06/17 10:08:57;;;;;;;5.28;4.78;;;33.50;52.10;;;;;;5074582;28;20504;-87
2023/06/17 10:11:25;;;;;;;5.20;4.70;;;33.60;47.20;;;;;;5056411;28;20563;-87
2023/06/17 10:14:02;;;;;;;7.65;4.80;;;33.90;51.80;;;;;;5074029;28;20224;-87
2023/06/17 10:16:31;;;;;;;5.00;4.28;;;34.30;48.80;;;;;;5073609;28;20610;-87
2023/06/17 10:19:03;;;;;;;7.22;4.45;;;34.70;51.50;;;;;;5075164;28;20166;-87
2023/06/17 10:21:30;;;;;;;5.22;4.68;;;35.00;49.20;;;;;;5074694;28;20209;-87
2023/06/17 10:23:58;;;;;;;5.18;4.78;;;34.80;48.50;;;;;;5053759;28;20183;-87
2023/06/17 10:26:28;;;;;;;5.38;4.38;;;35.00;48.50;;;;;;5055133;28;20191;-87
2023/06/17 10:28:54;;;;;;;4.40;4.05;;;35.00;46.70;;;;;;5071010;28;20178;-87
2023/06/17 10:31:28;;;;;;;7.97;4.63;;;35.00;46.30;;;;;;5073895;28;20575;-87
2023/06/17 10:33:55;;;;;;;5.70;4.57;;;34.90;48.10;;;;;;5074049;28;20687;-86
2023/06/17 10:36:21;;;;;;;5.63;4.20;;;34.70;45.90;;;;;;5073716;28;20178;-86
2023/06/17 10:38:55;;;;;;;5.28;4.68;;;34.60;47.50;;;;;;5073710;28;20174;-86
2023/06/17 10:41:21;;;;;;;7.40;4.40;;;34.80;49.60;;;;;;5072773;28;20653;-86
2023/06/17 10:43:49;;;;;;;5.60;4.65;;;34.50;44.40;;;;;;5074739;28;20222;-87
2023/06/17 10:46:24;;;;;;;6.00;4.57;;;34.20;46.60;;;;;;5072650;28;20297;-87
2023/06/17 10:48:50;;;;;;;5.03;4.50;;;34.20;46.40;;;;;;5075003;28;20603;-86
2023/06/17 10:51:17;;;;;;;5.50;4.97;;;34.40;47.90;;;;;;5075532;28;20198;-86
2023/06/17 10:53:49;;;;;;;5.93;4.53;;;34.30;46.10;;;;;;5075676;28;20178;-86
2023/06/17 10:56:15;;;;;;;6.55;4.78;;;34.40;47.40;;;;;;5074018;28;21032;-86
2023/06/17 10:58:46;;;;;;;4.68;4.28;;;34.60;46.50;;;;;;5074284;28;20585;-86
2023/06/17 11:01:13;;;;;;;8.65;5.07;;;34.70;45.80;;;;;;5073747;28;20452;-87
2023/06/17 11:03:40;;;;;;;5.93;5.43;;;34.50;43.50;;;;;;5075672;28;20174;-86
2023/06/17 11:06:07;;;;;;;6.35;4.60;;;34.40;44.10;;;;;;5075705;28;20174;-88
2023/06/17 11:08:34;;;;;;;8.15;4.45;;;34.10;44.60;;;;;;5075672;28;20640;-86
2023/06/17 11:11:16;;;;;;;5.82;4.60;;;33.60;45.60;;;;;;5079978;28;20563;-86
2023/06/17 11:13:51;;;;;;;4.78;4.38;;;33.80;46.60;;;;;;5075290;28;20178;-87
2023/06/17 11:16:16;;;;;;;6.75;5.25;;;34.50;47.20;;;;;;5074614;28;20177;-87
2023/06/17 11:18:43;;;;;;;4.72;4.32;;;34.70;45.80;;;;;;5057662;28;20189;-87
2023/06/17 11:21:09;;;;;;;4.40;4.03;;;35.00;45.60;;;;;;5054932;28;20221;-87
2023/06/17 11:23:38;;;;;;;5.38;4.00;;;35.30;45.70;;;;;;5062519;28;20190;-87
2023/06/17 11:26:08;;;;;;;6.95;4.30;;;35.60;46.90;;;;;;5076430;28;20170;-86
2023/06/17 11:28:35;;;;;;;4.75;4.38;;;35.30;43.80;;;;;;5077985;28;20166;-87
2023/06/17 11:31:01;;;;;;;5.72;4.55;;;34.80;41.50;;;;;;5073933;28;20198;-87
2023/06/17 11:33:28;;;;;;;5.18;4.50;;;34.60;46.30;;;;;;5074405;28;20702;-87
2023/06/17 11:35:54;;;;;;;3.88;3.47;;;35.00;46.40;;;;;;5074850;28;20371;-88
2023/06/17 11:38:22;;;;;;;4.18;3.78;;;35.00;44.10;;;;;;5075833;28;20743;-87
2023/06/17 11:40:53;;;;;;;5.30;4.35;;;35.00;42.30;;;;;;5080318;28;20240;-87
2023/06/17 11:43:24;;;;;;;5.75;5.18;;;34.70;41.50;;;;;;5079731;28;20273;-87
2023/06/17 11:45:50;;;;;;;5.50;3.88;;;34.50;42.50;;;;;;5075985;28;20166;-87
2023/06/17 11:48:17;;;;;;;5.28;4.32;;;34.60;41.60;;;;;;5074478;28;20528;-87
2023/06/17 11:50:43;;;;;;;5.20;4.63;;;34.60;40.80;;;;;;5074107;28;20194;-86
2023/06/17 11:53:08;;;;;;;4.53;4.20;;;34.70;42.10;;;;;;5074448;28;20602;-87
2023/06/17 11:55:35;;;;;;;5.78;3.92;;;34.90;41.80;;;;;;5075476;28;20188;-87
2023/06/17 11:58:04;;;;;;;4.50;4.00;;;35.00;40.00;;;;;;5072129;28;20277;-87
2023/06/17 12:00:35;;;;;;;4.05;3.72;;;34.80;41.40;;;;;;5072171;28;20198;-87
2023/06/17 12:03:02;;;;;;;4.22;3.72;;;34.50;39.80;;;;;;5075600;28;20219;-87
2023/06/17 12:05:28;;;;;;;4.82;3.85;;;34.50;38.50;;;;;;5076486;28;20178;-86
2023/06/17 12:07:59;;;;;;;5.40;3.60;;;34.70;38.20;;;;;;5071871;28;20261;-86
2023/06/17 12:10:26;;;;;;;4.22;3.67;;;35.20;36.80;;;;;;5073372;28;20186;-87
2023/06/17 12:12:56;;;;;;;4.15;3.75;;;35.20;35.60;;;;;;5072642;28;20213;-87
2023/06/17 12:15:29;;;;;;;3.70;3.40;;;35.40;39.70;;;;;;5072331;28;20190;-87
2023/06/17 12:17:56;;;;;;;5.57;4.10;;;35.50;39.90;;;;;;5072947;28;20178;-88
2023/06/17 12:20:22;;;;;;;4.00;3.60;;;35.80;34.20;;;;;;5071678;28;20203;-87
2023/06/17 12:22:52;;;;;;;7.20;3.92;;;35.90;35.20;;;;;;5073460;28;20180;-87
2023/06/17 12:25:18;;;;;;;6.25;3.47;;;35.80;33.40;;;;;;5080550;28;20239;-86
2023/06/17 12:27:44;;;;;;;4.10;3.45;;;35.90;35.20;;;;;;5071843;28;20166;-87
2023/06/17 12:30:11;;;;;;;4.22;3.80;;;36.20;35.60;;;;;;5087018;22;20198;-67
2023/06/17 12:32:37;;;;;;;4.85;4.45;;;36.40;37.00;;;;;;5031171;28;20938;-67
2023/06/17 12:35:04;;;;;;;5.03;4.15;;;36.40;35.20;;;;;;5038233;28;20175;-67
2023/06/17 12:37:33;;;;;;;5.70;4.43;;;36.20;35.70;;;;;;5051645;28;20187;-67
2023/06/17 12:40:00;;;;;;;5.45;3.70;;;36.00;36.00;;;;;;5051225;28;20199;-67
2023/06/17 12:42:26;;;;;;;4.78;4.20;;;35.70;38.10;;;;;;5036658;28;20183;-67
2023/06/17 12:44:52;;;;;;;4.05;3.72;;;35.70;35.80;;;;;;5068295;22;20221;-86
2023/06/17 12:47:21;;;;;;;4.90;4.38;;;35.20;36.70;;;;;;5108344;28;20177;-87